sensor_id;sensor_type;location;lat;lon;timestamp;pressure;altitude;pressure_sealevel;temperature;humidity
56456;BME280;42354;53.218;6.564;2023-11-18T00:01:45;47213.03;;;-142.92;100.00
56456;BME280;42354;53.218;6.564;2023-11-18T00:04:11;47196.59;;;-142.92;100.00
56456;BME280;42354;53.218;6.564;2023-11-18T00:06:44;47223.28;;;-142.92;100.00
56456;BME280;42354;53.218;6.564;2023-11-18T00:09:12;47213.03;;;-142.92;100.00
56456;BME280;42354;53.218;6.564;2023-11-18T00:11:39;47229.44;;;-142.92;100.00
56456;BME280;42354;53.218;6.564;2023-11-18T00:14:04;47235.59;;;-142.92;100.00
56456;BME280;42354;53.218;6.564;2023-11-18T00:16:30;47217.13;;;-142.92;100.00
56456;BME280;42354;53.218;6.564;2023-11-18T00:18:56;47237.66;;;-142.92;100.00
56456;BME280;42354;53.218;6.564;2023-11-18T00:21:23;47229.44;;;-142.92;100.00
56456;BME280;42354;53.218;6.564;2023-11-18T00:23:49;47217.13;;;-142.92;100.00
56456;BME280;42354;53.218;6.564;2023-11-18T00:26:14;47223.28;;;-142.92;100.00
56456;BME280;42354;53.218;6.564;2023-11-18T00:28:39;47239.69;;;-142.92;100.00
56456;BME280;42354;53.218;6.564;2023-11-18T00:31:05;47237.66;;;-142.92;100.00
56456;BME280;42354;53.218;6.564;2023-11-18T00:33:31;47241.75;;;-142.92;100.00
56456;BME280;42354;53.218;6.564;2023-11-18T00:35:57;47256.13;;;-142.92;100.00
56456;BME280;42354;53.218;6.564;2023-11-18T00:38:22;47262.28;;;-142.92;100.00
56456;BME280;42354;53.218;6.564;2023-11-18T00:40:48;47252.00;;;-142.92;100.00
56456;BME280;42354;53.218;6.564;2023-11-18T00:43:13;47249.97;;;-142.92;100.00
56456;BME280;42354;53.218;6.564;2023-11-18T00:45:38;47258.16;;;-142.92;100.00
56456;BME280;42354;53.218;6.564;2023-11-18T00:48:04;47262.28;;;-142.92;100.00
56456;BME280;42354;53.218;6.564;2023-11-18T00:50:30;47264.31;;;-142.92;100.00
56456;BME280;42354;53.218;6.564;2023-11-18T00:52:56;47260.22;;;-142.92;100.00
56456;BME280;42354;53.218;6.564;2023-11-18T00:55:22;47278.69;;;-142.92;100.00
56456;BME280;42354;53.218;6.564;2023-11-18T00:57:47;47252.00;;;-142.92;100.00
56456;BME280;42354;53.218;6.564;2023-11-18T01:00:13;47274.59;;;-142.92;100.00
56456;BME280;42354;53.218;6.564;2023-11-18T01:02:43;47258.16;;;-142.92;100.00
56456;BME280;42354;53.218;6.564;2023-11-18T01:05:09;47264.31;;;-142.92;100.00
56456;BME280;42354;53.218;6.564;2023-11-18T01:07:36;47256.13;;;-142.92;100.00
56456;BME280;42354;53.218;6.564;2023-11-18T01:10:01;47274.59;;;-142.92;100.00
56456;BME280;42354;53.218;6.564;2023-11-18T01:12:27;47272.53;;;-142.92;100.00
56456;BME280;42354;53.218;6.564;2023-11-18T01:14:52;47274.59;;;-142.92;100.00
56456;BME280;42354;53.218;6.564;2023-11-18T01:17:17;47288.94;;;-142.92;100.00
56456;BME280;42354;53.218;6.564;2023-11-18T01:19:43;47276.63;;;-142.92;100.00
56456;BME280;42354;53.218;6.564;2023-11-18T01:22:10;47282.78;;;-142.92;100.00
56456;BME280;42354;53.218;6.564;2023-11-18T01:24:36;47291.00;;;-142.92;100.00
56456;BME280;42354;53.218;6.564;2023-11-18T01:27:02;47254.06;;;-142.92;100.00
56456;BME280;42354;53.218;6.564;2023-11-18T01:29:27;47270.47;;;-142.92;100.00
56456;BME280;42354;53.218;6.564;2023-11-18T01:31:53;47278.69;;;-142.92;100.00
56456;BME280;42354;53.218;6.564;2023-11-18T01:34:20;47284.84;;;-142.92;100.00
56456;BME280;42354;53.218;6.564;2023-11-18T01:36:49;47307.41;;;-142.92;100.00
56456;BME280;42354;53.218;6.564;2023-11-18T01:39:15;47297.16;;;-142.92;100.00
56456;BME280;42354;53.218;6.564;2023-11-18T01:41:43;47299.22;;;-142.92;100.00
56456;BME280;42354;53.218;6.564;2023-11-18T01:44:08;47305.38;;;-142.92;100.00
56456;BME280;42354;53.218;6.564;2023-11-18T01:46:34;47297.16;;;-142.92;100.00
56456;BME280;42354;53.218;6.564;2023-11-18T01:49:02;47307.41;;;-142.92;100.00
56456;BME280;42354;53.218;6.564;2023-11-18T01:51:29;47295.09;;;-142.92;100.00
56456;BME280;42354;53.218;6.564;2023-11-18T01:53:56;47297.16;;;-142.92;100.00
56456;BME280;42354;53.218;6.564;2023-11-18T01:56:25;47315.63;;;-142.92;100.00
56456;BME280;42354;53.218;6.564;2023-11-18T01:58:52;47299.22;;;-142.92;100.00
56456;BME280;42354;53.218;6.564;2023-11-18T02:01:18;47295.09;;;-142.92;100.00
56456;BME280;42354;53.218;6.564;2023-11-18T02:03:44;47293.06;;;-142.92;100.00
56456;BME280;42354;53.218;6.564;2023-11-18T02:06:09;47301.25;;;-142.92;100.00
56456;BME280;42354;53.218;6.564;2023-11-18T02:08:35;47299.22;;;-142.92;100.00
56456;BME280;42354;53.218;6.564;2023-11-18T02:11:28;47305.38;;;-142.92;100.00
56456;BME280;42354;53.218;6.564;2023-11-18T02:13:56;47297.16;;;-142.92;100.00
56456;BME280;42354;53.218;6.564;2023-11-18T02:16:25;47319.72;;;-142.92;100.00
56456;BME280;42354;53.218;6.564;2023-11-18T02:18:52;47319.72;;;-142.92;100.00
56456;BME280;42354;53.218;6.564;2023-11-18T02:21:18;47317.69;;;-142.92;100.00
56456;BME280;42354;53.218;6.564;2023-11-18T02:23:48;47313.56;;;-142.92;100.00
56456;BME280;42354;53.218;6.564;2023-11-18T02:26:24;47315.63;;;-142.92;100.00
56456;BME280;42354;53.218;6.564;2023-11-18T02:28:49;47327.94;;;-142.92;100.00
56456;BME280;42354;53.218;6.564;2023-11-18T02:31:24;47319.72;;;-142.92;100.00
56456;BME280;42354;53.218;6.564;2023-11-18T02:34:00;47321.78;;;-142.92;100.00
56456;BME280;42354;53.218;6.564;2023-11-18T02:36:36;47313.56;;;-142.92;100.00
56456;BME280;42354;53.218;6.564;2023-11-18T02:39:20;47327.94;;;-142.92;100.00
56456;BME280;42354;53.218;6.564;2023-11-18T02:41:48;47336.16;;;-142.92;100.00
56456;BME280;42354;53.218;6.564;2023-11-18T02:44:17;47327.94;;;-142.92;100.00
56456;BME280;42354;53.218;6.564;2023-11-18T02:46:44;47313.56;;;-142.92;100.00
56456;BME280;42354;53.218;6.564;2023-11-18T02:49:10;47327.94;;;-142.92;100.00
56456;BME280;42354;53.218;6.564;2023-11-18T02:51:35;47338.19;;;-142.92;100.00
56456;BME280;42354;53.218;6.564;2023-11-18T02:54:05;47325.88;;;-142.92;100.00
56456;BME280;42354;53.218;6.564;2023-11-18T02:56:39;47323.84;;;-142.92;100.00
56456;BME280;42354;53.218;6.564;2023-11-18T02:59:05;47319.72;;;-142.92;100.00
56456;BME280;42354;53.218;6.564;2023-11-18T03:01:33;47332.03;;;-142.92;100.00
56456;BME280;42354;53.218;6.564;2023-11-18T03:04:01;47330.00;;;-142.92;100.00
56456;BME280;42354;53.218;6.564;2023-11-18T03:06:27;47313.56;;;-142.92;100.00
56456;BME280;42354;53.218;6.564;2023-11-18T03:08:53;47323.84;;;-142.92;100.00
56456;BME280;42354;53.218;6.564;2023-11-18T03:11:21;47340.25;;;-142.92;100.00
56456;BME280;42354;53.218;6.564;2023-11-18T03:13:47;47325.88;;;-142.92;100.00
56456;BME280;42354;53.218;6.564;2023-11-18T03:16:13;47336.16;;;-142.92;100.00
56456;BME280;42354;53.218;6.564;2023-11-18T03:18:41;47336.16;;;-142.92;100.00
56456;BME280;42354;53.218;6.564;2023-11-18T03:21:14;47340.25;;;-142.92;100.00
56456;BME280;42354;53.218;6.564;2023-11-18T03:23:40;47332.03;;;-142.92;100.00
56456;BME280;42354;53.218;6.564;2023-11-18T03:26:10;47338.19;;;-142.92;100.00
56456;BME280;42354;53.218;6.564;2023-11-18T03:28:36;47319.72;;;-142.92;100.00
56456;BME280;42354;53.218;6.564;2023-11-18T03:31:03;47332.03;;;-142.92;100.00
56456;BME280;42354;53.218;6.564;2023-11-18T03:33:29;47340.25;;;-142.92;100.00
56456;BME280;42354;53.218;6.564;2023-11-18T03:35:54;47330.00;;;-142.92;100.00
56456;BME280;42354;53.218;6.564;2023-11-18T03:38:21;47334.09;;;-142.92;100.00
56456;BME280;42354;53.218;6.564;2023-11-18T03:40:47;47340.25;;;-142.92;100.00
56456;BME280;42354;53.218;6.564;2023-11-18T03:43:13;47327.94;;;-142.92;100.00
56456;BME280;42354;53.218;6.564;2023-11-18T03:45:41;47340.25;;;-142.92;100.00
56456;BME280;42354;53.218;6.564;2023-11-18T03:48:07;47344.34;;;-142.92;100.00
56456;BME280;42354;53.218;6.564;2023-11-18T03:50:33;47342.31;;;-142.92;100.00
56456;BME280;42354;53.218;6.564;2023-11-18T03:52:59;47327.94;;;-142.92;100.00
56456;BME280;42354;53.218;6.564;2023-11-18T03:55:24;47332.03;;;-142.92;100.00
56456;BME280;42354;53.218;6.564;2023-11-18T03:57:52;47336.16;;;-142.92;100.00
56456;BME280;42354;53.218;6.564;2023-11-18T04:00:19;47332.03;;;-142.92;100.00
56456;BME280;42354;53.218;6.564;2023-11-18T04:02:45;47340.25;;;-142.92;100.00
56456;BME280;42354;53.218;6.564;2023-11-18T04:05:11;47338.19;;;-142.92;100.00
56456;BME280;42354;53.218;6.564;2023-11-18T04:07:36;47344.34;;;-142.92;100.00
56456;BME280;42354;53.218;6.564;2023-11-18T04:10:02;47332.03;;;-142.92;100.00
56456;BME280;42354;53.218;6.564;2023-11-18T04:12:27;47340.25;;;-142.92;100.00
56456;BME280;42354;53.218;6.564;2023-11-18T04:14:53;47338.19;;;-142.92;100.00
56456;BME280;42354;53.218;6.564;2023-11-18T04:17:18;47338.19;;;-142.92;100.00
56456;BME280;42354;53.218;6.564;2023-11-18T04:19:43;47346.41;;;-142.92;100.00
56456;BME280;42354;53.218;6.564;2023-11-18T04:22:09;47346.41;;;-142.92;100.00
56456;BME280;42354;53.218;6.564;2023-11-18T04:24:35;47330.00;;;-142.92;100.00
56456;BME280;42354;53.218;6.564;2023-11-18T04:27:00;47334.09;;;-142.92;100.00
56456;BME280;42354;53.218;6.564;2023-11-18T04:29:27;47332.03;;;-142.92;100.00
56456;BME280;42354;53.218;6.564;2023-11-18T04:31:52;47348.47;;;-142.92;100.00
56456;BME280;42354;53.218;6.564;2023-11-18T04:34:19;47342.31;;;-142.92;100.00
56456;BME280;42354;53.218;6.564;2023-11-18T04:36:44;47340.25;;;-142.92;100.00
56456;BME280;42354;53.218;6.564;2023-11-18T04:39:10;47340.25;;;-142.92;100.00
56456;BME280;42354;53.218;6.564;2023-11-18T04:41:38;47336.16;;;-142.92;100.00
56456;BME280;42354;53.218;6.564;2023-11-18T04:44:03;47336.16;;;-142.92;100.00
56456;BME280;42354;53.218;6.564;2023-11-18T04:46:29;47330.00;;;-142.92;100.00
56456;BME280;42354;53.218;6.564;2023-11-18T04:48:54;47332.03;;;-142.92;100.00
56456;BME280;42354;53.218;6.564;2023-11-18T04:51:21;47340.25;;;-142.92;100.00
56456;BME280;42354;53.218;6.564;2023-11-18T04:53:50;47344.34;;;-142.92;100.00
56456;BME280;42354;53.218;6.564;2023-11-18T04:56:16;47327.94;;;-142.92;100.00
56456;BME280;42354;53.218;6.564;2023-11-18T04:58:43;47338.19;;;-142.92;100.00
56456;BME280;42354;53.218;6.564;2023-11-18T05:01:11;47330.00;;;-142.92;100.00
56456;BME280;42354;53.218;6.564;2023-11-18T05:03:38;47340.25;;;-142.92;100.00
56456;BME280;42354;53.218;6.564;2023-11-18T05:06:03;47340.25;;;-142.92;100.00
56456;BME280;42354;53.218;6.564;2023-11-18T05:08:29;47340.25;;;-142.92;100.00
56456;BME280;42354;53.218;6.564;2023-11-18T05:10:55;47344.34;;;-142.92;100.00
56456;BME280;42354;53.218;6.564;2023-11-18T05:13:22;47342.31;;;-142.92;100.00
56456;BME280;42354;53.218;6.564;2023-11-18T05:15:48;47336.16;;;-142.92;100.00
56456;BME280;42354;53.218;6.564;2023-11-18T05:18:15;47327.94;;;-142.92;100.00
56456;BME280;42354;53.218;6.564;2023-11-18T05:20:41;47330.00;;;-142.92;100.00
56456;BME280;42354;53.218;6.564;2023-11-18T05:23:07;47334.09;;;-142.92;100.00
56456;BME280;42354;53.218;6.564;2023-11-18T05:25:36;47327.94;;;-142.92;100.00
56456;BME280;42354;53.218;6.564;2023-11-18T05:28:01;47350.50;;;-142.92;100.00
56456;BME280;42354;53.218;6.564;2023-11-18T05:30:27;47332.03;;;-142.92;100.00
56456;BME280;42354;53.218;6.564;2023-11-18T05:32:52;47336.16;;;-142.92;100.00
56456;BME280;42354;53.218;6.564;2023-11-18T05:35:17;47323.84;;;-142.92;100.00
56456;BME280;42354;53.218;6.564;2023-11-18T05:37:43;47323.84;;;-142.92;100.00
56456;BME280;42354;53.218;6.564;2023-11-18T05:40:09;47334.09;;;-142.92;100.00
56456;BME280;42354;53.218;6.564;2023-11-18T05:42:35;47332.03;;;-142.92;100.00
56456;BME280;42354;53.218;6.564;2023-11-18T05:45:03;47325.88;;;-142.92;100.00
56456;BME280;42354;53.218;6.564;2023-11-18T05:47:29;47332.03;;;-142.92;100.00
56456;BME280;42354;53.218;6.564;2023-11-18T05:49:55;47327.94;;;-142.92;100.00
56456;BME280;42354;53.218;6.564;2023-11-18T05:52:21;47330.00;;;-142.92;100.00
56456;BME280;42354;53.218;6.564;2023-11-18T05:54:47;47325.88;;;-142.92;100.00
56456;BME280;42354;53.218;6.564;2023-11-18T05:57:15;47327.94;;;-142.92;100.00
56456;BME280;42354;53.218;6.564;2023-11-18T05:59:42;47334.09;;;-142.92;100.00
56456;BME280;42354;53.218;6.564;2023-11-18T06:02:07;47323.84;;;-142.92;100.00
56456;BME280;42354;53.218;6.564;2023-11-18T06:04:33;47334.09;;;-142.92;100.00
56456;BME280;42354;53.218;6.564;2023-11-18T06:06:58;47330.00;;;-142.92;100.00
56456;BME280;42354;53.218;6.564;2023-11-18T06:09:24;47334.09;;;-142.92;100.00
56456;BME280;42354;53.218;6.564;2023-11-18T06:11:53;47323.84;;;-142.92;100.00
56456;BME280;42354;53.218;6.564;2023-11-18T06:14:20;47311.53;;;-142.92;100.00
56456;BME280;42354;53.218;6.564;2023-11-18T06:16:47;47330.00;;;-142.92;100.00
56456;BME280;42354;53.218;6.564;2023-11-18T06:19:15;47327.94;;;-142.92;100.00
56456;BME280;42354;53.218;6.564;2023-11-18T06:21:40;47315.63;;;-142.92;100.00
56456;BME280;42354;53.218;6.564;2023-11-18T06:24:06;47319.72;;;-142.92;100.00
56456;BME280;42354;53.218;6.564;2023-11-18T06:26:32;47330.00;;;-142.92;100.00
56456;BME280;42354;53.218;6.564;2023-11-18T06:29:01;47307.41;;;-142.92;100.00
56456;BME280;42354;53.218;6.564;2023-11-18T06:31:27;47319.72;;;-142.92;100.00
56456;BME280;42354;53.218;6.564;2023-11-18T06:33:54;47315.63;;;-142.92;100.00
56456;BME280;42354;53.218;6.564;2023-11-18T06:36:20;47319.72;;;-142.92;100.00
56456;BME280;42354;53.218;6.564;2023-11-18T06:38:48;47319.72;;;-142.92;100.00
56456;BME280;42354;53.218;6.564;2023-11-18T06:41:16;47319.72;;;-142.92;100.00
56456;BME280;42354;53.218;6.564;2023-11-18T06:43:43;47315.63;;;-142.92;100.00
56456;BME280;42354;53.218;6.564;2023-11-18T06:46:29;47307.41;;;-142.92;100.00
56456;BME280;42354;53.218;6.564;2023-11-18T06:48:58;47321.78;;;-142.92;100.00
56456;BME280;42354;53.218;6.564;2023-11-18T06:51:25;47317.69;;;-142.92;100.00
56456;BME280;42354;53.218;6.564;2023-11-18T06:53:55;47321.78;;;-142.92;100.00
56456;BME280;42354;53.218;6.564;2023-11-18T06:56:21;47315.63;;;-142.92;100.00
56456;BME280;42354;53.218;6.564;2023-11-18T06:58:47;47315.63;;;-142.92;100.00
56456;BME280;42354;53.218;6.564;2023-11-18T07:01:13;47321.78;;;-142.92;100.00
56456;BME280;42354;53.218;6.564;2023-11-18T07:03:43;47319.72;;;-142.92;100.00
56456;BME280;42354;53.218;6.564;2023-11-18T07:06:09;47332.03;;;-142.92;100.00
56456;BME280;42354;53.218;6.564;2023-11-18T07:08:36;47325.88;;;-142.92;100.00
56456;BME280;42354;53.218;6.564;2023-11-18T07:11:02;47319.72;;;-142.92;100.00
56456;BME280;42354;53.218;6.564;2023-11-18T07:13:29;47321.78;;;-142.92;100.00
56456;BME280;42354;53.218;6.564;2023-11-18T07:15:57;47319.72;;;-142.92;100.00
56456;BME280;42354;53.218;6.564;2023-11-18T07:18:23;47330.00;;;-142.92;100.00
56456;BME280;42354;53.218;6.564;2023-11-18T07:20:49;47321.78;;;-142.92;100.00
56456;BME280;42354;53.218;6.564;2023-11-18T07:23:17;47315.63;;;-142.92;100.00
56456;BME280;42354;53.218;6.564;2023-11-18T07:25:43;47317.69;;;-142.92;100.00
56456;BME280;42354;53.218;6.564;2023-11-18T07:28:10;47309.47;;;-142.92;100.00
56456;BME280;42354;53.218;6.564;2023-11-18T07:30:35;47317.69;;;-142.92;100.00
56456;BME280;42354;53.218;6.564;2023-11-18T07:33:02;47309.47;;;-142.92;100.00
56456;BME280;42354;53.218;6.564;2023-11-18T07:35:28;47319.72;;;-142.92;100.00
56456;BME280;42354;53.218;6.564;2023-11-18T07:37:55;47319.72;;;-142.92;100.00
56456;BME280;42354;53.218;6.564;2023-11-18T07:40:20;47305.38;;;-142.92;100.00
56456;BME280;42354;53.218;6.564;2023-11-18T07:42:54;47307.41;;;-142.92;100.00
56456;BME280;42354;53.218;6.564;2023-11-18T07:45:21;47321.78;;;-142.92;100.00
56456;BME280;42354;53.218;6.564;2023-11-18T07:47:51;47313.56;;;-142.92;100.00
56456;BME280;42354;53.218;6.564;2023-11-18T07:50:20;47315.63;;;-142.92;100.00
56456;BME280;42354;53.218;6.564;2023-11-18T07:52:50;47315.63;;;-142.92;100.00
56456;BME280;42354;53.218;6.564;2023-11-18T07:55:15;47315.63;;;-142.92;100.00
56456;BME280;42354;53.218;6.564;2023-11-18T07:57:41;47325.88;;;-142.92;100.00
56456;BME280;42354;53.218;6.564;2023-11-18T08:00:07;47321.78;;;-142.92;100.00
56456;BME280;42354;53.218;6.564;2023-11-18T08:02:36;47299.22;;;-142.92;100.00
56456;BME280;42354;53.218;6.564;2023-11-18T08:05:05;47317.69;;;-142.92;100.00
56456;BME280;42354;53.218;6.564;2023-11-18T08:07:36;47323.84;;;-142.92;100.00
56456;BME280;42354;53.218;6.564;2023-11-18T08:10:02;47319.72;;;-142.92;100.00
56456;BME280;42354;53.218;6.564;2023-11-18T08:12:33;47313.56;;;-142.92;100.00
56456;BME280;42354;53.218;6.564;2023-11-18T08:15:00;47307.41;;;-142.92;100.00
56456;BME280;42354;53.218;6.564;2023-11-18T08:17:26;47301.25;;;-142.92;100.00
56456;BME280;42354;53.218;6.564;2023-11-18T08:19:54;47305.38;;;-142.92;100.00
56456;BME280;42354;53.218;6.564;2023-11-18T08:22:21;47305.38;;;-142.92;100.00
56456;BME280;42354;53.218;6.564;2023-11-18T08:24:48;47319.72;;;-142.92;100.00
56456;BME280;42354;53.218;6.564;2023-11-18T08:27:14;47307.41;;;-142.92;100.00
56456;BME280;42354;53.218;6.564;2023-11-18T08:29:40;47315.63;;;-142.92;100.00
56456;BME280;42354;53.218;6.564;2023-11-18T08:32:06;47311.53;;;-142.92;100.00
56456;BME280;42354;53.218;6.564;2023-11-18T08:34:35;47317.69;;;-142.92;100.00
56456;BME280;42354;53.218;6.564;2023-11-18T08:37:05;47303.31;;;-142.92;100.00
56456;BME280;42354;53.218;6.564;2023-11-18T08:39:30;47303.31;;;-142.92;100.00
56456;BME280;42354;53.218;6.564;2023-11-18T08:41:57;47303.31;;;-142.92;100.00
56456;BME280;42354;53.218;6.564;2023-11-18T08:44:25;47297.16;;;-142.92;100.00
56456;BME280;42354;53.218;6.564;2023-11-18T08:46:52;47315.63;;;-142.92;100.00
56456;BME280;42354;53.218;6.564;2023-11-18T08:49:19;47303.31;;;-142.92;100.00
56456;BME280;42354;53.218;6.564;2023-11-18T08:51:48;47303.31;;;-142.92;100.00
56456;BME280;42354;53.218;6.564;2023-11-18T08:54:15;47315.63;;;-142.92;100.00
56456;BME280;42354;53.218;6.564;2023-11-18T08:56:51;47313.56;;;-142.92;100.00
56456;BME280;42354;53.218;6.564;2023-11-18T08:59:21;47299.22;;;-142.92;100.00
56456;BME280;42354;53.218;6.564;2023-11-18T09:01:53;47305.38;;;-142.92;100.00
56456;BME280;42354;53.218;6.564;2023-11-18T09:04:27;47299.22;;;-142.92;100.00
56456;BME280;42354;53.218;6.564;2023-11-18T09:06:53;47303.31;;;-142.92;100.00
56456;BME280;42354;53.218;6.564;2023-11-18T09:09:25;47301.25;;;-142.92;100.00
56456;BME280;42354;53.218;6.564;2023-11-18T09:11:54;47305.38;;;-142.92;100.00
56456;BME280;42354;53.218;6.564;2023-11-18T09:14:24;47301.25;;;-142.92;100.00
56456;BME280;42354;53.218;6.564;2023-11-18T09:16:53;47293.06;;;-142.92;100.00
56456;BME280;42354;53.218;6.564;2023-11-18T09:19:24;47301.25;;;-142.92;100.00
56456;BME280;42354;53.218;6.564;2023-11-18T09:21:49;47301.25;;;-142.92;100.00
56456;BME280;42354;53.218;6.564;2023-11-18T09:24:17;47297.16;;;-142.92;100.00
56456;BME280;42354;53.218;6.564;2023-11-18T09:26:45;47305.38;;;-142.92;100.00
56456;BME280;42354;53.218;6.564;2023-11-18T09:29:13;47305.38;;;-142.92;100.00
56456;BME280;42354;53.218;6.564;2023-11-18T09:31:46;47305.38;;;-142.92;100.00
56456;BME280;42354;53.218;6.564;2023-11-18T09:34:18;47297.16;;;-142.92;100.00
56456;BME280;42354;53.218;6.564;2023-11-18T09:36:43;47315.63;;;-142.92;100.00
56456;BME280;42354;53.218;6.564;2023-11-18T09:39:10;47313.56;;;-142.92;100.00
56456;BME280;42354;53.218;6.564;2023-11-18T09:41:55;47313.56;;;-142.92;100.00
56456;BME280;42354;53.218;6.564;2023-11-18T09:44:22;47323.84;;;-142.92;100.00
56456;BME280;42354;53.218;6.564;2023-11-18T09:46:56;47325.88;;;-142.92;100.00
56456;BME280;42354;53.218;6.564;2023-11-18T09:49:34;47327.94;;;-142.92;100.00
56456;BME280;42354;53.218;6.564;2023-11-18T09:52:05;47330.00;;;-142.92;100.00
56456;BME280;42354;53.218;6.564;2023-11-18T09:54:48;47327.94;;;-142.92;100.00
56456;BME280;42354;53.218;6.564;2023-11-18T09:57:37;47327.94;;;-142.92;100.00
56456;BME280;42354;53.218;6.564;2023-11-18T10:00:10;47327.94;;;-142.92;100.00
56456;BME280;42354;53.218;6.564;2023-11-18T10:02:52;47332.03;;;-142.92;100.00
56456;BME280;42354;53.218;6.564;2023-11-18T10:05:18;47325.88;;;-142.92;100.00
56456;BME280;42354;53.218;6.564;2023-11-18T10:07:48;47330.00;;;-142.92;100.00
56456;BME280;42354;53.218;6.564;2023-11-18T10:10:14;47327.94;;;-142.92;100.00
56456;BME280;42354;53.218;6.564;2023-11-18T10:12:44;47338.19;;;-142.92;100.00
56456;BME280;42354;53.218;6.564;2023-11-18T10:15:19;47340.25;;;-142.92;100.00
56456;BME280;42354;53.218;6.564;2023-11-18T10:17:49;47336.16;;;-142.92;100.00
56456;BME280;42354;53.218;6.564;2023-11-18T10:20:51;47340.25;;;-142.92;100.00
56456;BME280;42354;53.218;6.564;2023-11-18T10:23:20;47344.34;;;-142.92;100.00
56456;BME280;42354;53.218;6.564;2023-11-18T10:28:29;47346.41;;;-142.92;100.00
56456;BME280;42354;53.218;6.564;2023-11-18T10:31:00;47344.34;;;-142.92;100.00
56456;BME280;42354;53.218;6.564;2023-11-18T10:33:32;47340.25;;;-142.92;100.00
56456;BME280;42354;53.218;6.564;2023-11-18T10:35:58;47332.03;;;-142.92;100.00
56456;BME280;42354;53.218;6.564;2023-11-18T10:38:29;47338.19;;;-142.92;100.00
56456;BME280;42354;53.218;6.564;2023-11-18T10:40:55;47354.63;;;-142.92;100.00
56456;BME280;42354;53.218;6.564;2023-11-18T10:43:22;47348.47;;;-142.92;100.00
56456;BME280;42354;53.218;6.564;2023-11-18T10:45:52;47334.09;;;-142.92;100.00
56456;BME280;42354;53.218;6.564;2023-11-18T10:48:18;47350.50;;;-142.92;100.00
56456;BME280;42354;53.218;6.564;2023-11-18T10:50:49;47338.19;;;-142.92;100.00
56456;BME280;42354;53.218;6.564;2023-11-18T10:53:16;47344.34;;;-142.92;100.00
56456;BME280;42354;53.218;6.564;2023-11-18T10:55:43;47340.25;;;-142.92;100.00
56456;BME280;42354;53.218;6.564;2023-11-18T10:58:09;47336.16;;;-142.92;100.00
56456;BME280;42354;53.218;6.564;2023-11-18T11:00:50;47348.47;;;-142.92;100.00
56456;BME280;42354;53.218;6.564;2023-11-18T11:03:18;47344.34;;;-142.92;100.00
56456;BME280;42354;53.218;6.564;2023-11-18T11:05:44;47342.31;;;-142.92;100.00
56456;BME280;42354;53.218;6.564;2023-11-18T11:08:16;47344.34;;;-142.92;100.00
56456;BME280;42354;53.218;6.564;2023-11-18T11:10:46;47344.34;;;-142.92;100.00
56456;BME280;42354;53.218;6.564;2023-11-18T11:13:14;47346.41;;;-142.92;100.00
56456;BME280;42354;53.218;6.564;2023-11-18T11:15:43;47342.31;;;-142.92;100.00
56456;BME280;42354;53.218;6.564;2023-11-18T11:18:12;47340.25;;;-142.92;100.00
56456;BME280;42354;53.218;6.564;2023-11-18T11:21:07;47342.31;;;-142.92;100.00
56456;BME280;42354;53.218;6.564;2023-11-18T11:23:52;47338.19;;;-142.92;100.00
56456;BME280;42354;53.218;6.564;2023-11-18T11:29:27;47340.25;;;-142.92;100.00
56456;BME280;42354;53.218;6.564;2023-11-18T11:34:56;47346.41;;;-142.92;100.00
56456;BME280;42354;53.218;6.564;2023-11-18T11:37:25;47330.00;;;-142.92;100.00
56456;BME280;42354;53.218;6.564;2023-11-18T11:39:53;47334.09;;;-142.92;100.00
56456;BME280;42354;53.218;6.564;2023-11-18T11:42:23;47336.16;;;-142.92;100.00
56456;BME280;42354;53.218;6.564;2023-11-18T11:44:49;47323.84;;;-142.92;100.00
56456;BME280;42354;53.218;6.564;2023-11-18T11:47:15;47352.56;;;-142.92;100.00
56456;BME280;42354;53.218;6.564;2023-11-18T11:50:11;47338.19;;;-142.92;100.00
56456;BME280;42354;53.218;6.564;2023-11-18T11:52:46;47336.16;;;-142.92;100.00
56456;BME280;42354;53.218;6.564;2023-11-18T11:55:29;47342.31;;;-142.92;100.00
56456;BME280;42354;53.218;6.564;2023-11-18T11:57:58;47336.16;;;-142.92;100.00
56456;BME280;42354;53.218;6.564;2023-11-18T12:00:25;47346.41;;;-142.92;100.00
56456;BME280;42354;53.218;6.564;2023-11-18T12:02:52;47323.84;;;-142.92;100.00
56456;BME280;42354;53.218;6.564;2023-11-18T12:05:20;47340.25;;;-142.92;100.00
56456;BME280;42354;53.218;6.564;2023-11-18T12:07:50;47327.94;;;-142.92;100.00
56456;BME280;42354;53.218;6.564;2023-11-18T12:10:17;47327.94;;;-142.92;100.00
56456;BME280;42354;53.218;6.564;2023-11-18T12:12:48;47313.56;;;-142.92;100.00
56456;BME280;42354;53.218;6.564;2023-11-18T12:15:14;47317.69;;;-142.92;100.00
56456;BME280;42354;53.218;6.564;2023-11-18T12:20:41;47319.72;;;-142.92;100.00
56456;BME280;42354;53.218;6.564;2023-11-18T12:23:14;47319.72;;;-142.92;100.00
56456;BME280;42354;53.218;6.564;2023-11-18T12:25:42;47325.88;;;-142.92;100.00
56456;BME280;42354;53.218;6.564;2023-11-18T12:28:09;47307.41;;;-142.92;100.00
56456;BME280;42354;53.218;6.564;2023-11-18T12:30:40;47301.25;;;-142.92;100.00
56456;BME280;42354;53.218;6.564;2023-11-18T12:33:17;47323.84;;;-142.92;100.00
56456;BME280;42354;53.218;6.564;2023-11-18T12:38:38;47313.56;;;-142.92;100.00
56456;BME280;42354;53.218;6.564;2023-11-18T12:41:35;47311.53;;;-142.92;100.00
56456;BME280;42354;53.218;6.564;2023-11-18T12:47:02;47291.00;;;-142.92;100.00
56456;BME280;42354;53.218;6.564;2023-11-18T12:49:38;47313.56;;;-142.92;100.00
56456;BME280;42354;53.218;6.564;2023-11-18T12:52:12;47303.31;;;-142.92;100.00
56456;BME280;42354;53.218;6.564;2023-11-18T12:54:44;47317.69;;;-142.92;100.00